Briefing drone pour La voulte-sur-rhone

Rechercher une autre localisation

Conditions de vol :


Nous sommes le : Samedi 06 mars 2021
Il est 13:44 UTC (14:44 LT)

Lever de soleil : 05:42 UTC (06:42 LT)
Coucher de soleil : 18:01 UTC (19:01 LT)

Météo

L'essentiel des conditions de vol

VIGILANCE MÉTÉO FRANCE - Ardèche (07)
Pas de vigilances particulieres
CARTES DES FRONTS
METAR de LFLU
LFLU 061330Z AUTO 30004KT 230V350 9999 FEW040 12/04 Q1023

Date d'émission: 06/03/2021
Heure d'émission: 13:30 UTC
Vent: 300° (variable du 230° au 350°) pour 4 KT (7 km/h)
Visibilité horizontale: > 10 km
Plafond :
- Peu de nuages à 4000ft (1219m)
Température: 12 °C
Point de rosée: 4 °C
Humidité: 58%
Pression (QNH): 1023 hPa
Prévision 24h pour Valence (11 km)
Vent : 190° pour 1 KT (4 km/h)
Temperature Maxi: 11 °C
Temperature Min: 11 °C
Humidité : 75%
Condition : Nuageux


WEBCAM POUR LA VOULTE-SUR-RHONE

Réglementation

Voler en sécurité

CARTES AERONAUTIQUE 1/500.000
CARTES VAC (LFLU)
SUP AIP




Chargement des AIP...
NOTAM (LA VOULTE-SUR-RHONE + Terrain à proximité / FIR )




Chargement des NOTAMS...
CONTACT PREFECTURE 07


Avertissement : Les données mises à disposition sont indicatives. Oxygène Drone ne pourra être tenu responsable de dégâts causés aux biens et aux personnes.